sensor_id;sensor_type;location;lat;lon;timestamp;pressure;altitude;pressure_sealevel;temperature;humidity
54236;BME280;40151;43.606;1.472;2022-11-20T00:01:37;99600.25;;;16.06;58.43
54236;BME280;40151;43.606;1.472;2022-11-20T00:04:03;99595.00;;;16.06;58.39
54236;BME280;40151;43.606;1.472;2022-11-20T00:06:30;99589.84;;;16.03;58.12
54236;BME280;40151;43.606;1.472;2022-11-20T00:08:58;99588.03;;;16.05;58.13
54236;BME280;40151;43.606;1.472;2022-11-20T00:11:26;99591.56;;;16.04;58.15
54236;BME280;40151;43.606;1.472;2022-11-20T00:13:55;99591.69;;;16.01;58.21
54236;BME280;40151;43.606;1.472;2022-11-20T00:16:23;99589.97;;;16.00;58.30
54236;BME280;40151;43.606;1.472;2022-11-20T00:18:50;99594.19;;;16.04;58.33
54236;BME280;40151;43.606;1.472;2022-11-20T00:21:18;99593.34;;;16.04;58.23
54236;BME280;40151;43.606;1.472;2022-11-20T00:23:44;99594.31;;;16.01;58.04
54236;BME280;40151;43.606;1.472;2022-11-20T00:26:12;99601.28;;;16.02;58.17
54236;BME280;40151;43.606;1.472;2022-11-20T00:28:38;99596.03;;;16.02;58.15
54236;BME280;40151;43.606;1.472;2022-11-20T00:31:09;99595.34;;;15.97;58.16
54236;BME280;40151;43.606;1.472;2022-11-20T00:33:35;99593.63;;;15.96;58.55
54236;BME280;40151;43.606;1.472;2022-11-20T00:36:05;99592.78;;;15.95;58.10
54236;BME280;40151;43.606;1.472;2022-11-20T00:38:32;99595.34;;;15.97;58.43
54236;BME280;40151;43.606;1.472;2022-11-20T00:40:59;99591.13;;;15.93;58.12
54236;BME280;40151;43.606;1.472;2022-11-20T00:43:25;99588.38;;;15.96;58.38
54236;BME280;40151;43.606;1.472;2022-11-20T00:45:56;99589.34;;;15.93;58.11
54236;BME280;40151;43.606;1.472;2022-11-20T00:48:21;99592.84;;;15.94;58.22
54236;BME280;40151;43.606;1.472;2022-11-20T00:50:47;99587.56;;;15.94;58.11
54236;BME280;40151;43.606;1.472;2022-11-20T00:53:12;99591.97;;;15.92;58.21
54236;BME280;40151;43.606;1.472;2022-11-20T00:55:37;99590.28;;;15.91;58.30
54236;BME280;40151;43.606;1.472;2022-11-20T00:58:03;99590.31;;;15.89;58.19
54236;BME280;40151;43.606;1.472;2022-11-20T01:00:28;99590.41;;;15.88;58.19
54236;BME280;40151;43.606;1.472;2022-11-20T01:02:55;99591.97;;;15.92;58.42
54236;BME280;40151;43.606;1.472;2022-11-20T01:05:21;99590.28;;;15.91;58.26
54236;BME280;40151;43.606;1.472;2022-11-20T01:07:46;99593.81;;;15.90;58.27
54236;BME280;40151;43.606;1.472;2022-11-20T01:10:12;99586.84;;;15.89;58.29
54236;BME280;40151;43.606;1.472;2022-11-20T01:12:37;99592.13;;;15.89;58.07
54236;BME280;40151;43.606;1.472;2022-11-20T01:15:03;99590.31;;;15.89;58.06
54236;BME280;40151;43.606;1.472;2022-11-20T01:17:28;99585.25;;;15.84;58.18
54236;BME280;40151;43.606;1.472;2022-11-20T01:19:54;99598.34;;;15.86;58.29
54236;BME280;40151;43.606;1.472;2022-11-20T01:22:19;99590.41;;;15.88;58.18
54236;BME280;40151;43.606;1.472;2022-11-20T01:24:44;99591.44;;;15.83;58.54
54236;BME280;40151;43.606;1.472;2022-11-20T01:27:10;99595.78;;;15.84;58.41
54236;BME280;40151;43.606;1.472;2022-11-20T01:29:35;99593.97;;;15.87;58.38
54236;BME280;40151;43.606;1.472;2022-11-20T01:32:01;99595.78;;;15.84;58.50
54236;BME280;40151;43.606;1.472;2022-11-20T01:34:26;99593.97;;;15.87;58.47
54236;BME280;40151;43.606;1.472;2022-11-20T01:36:52;99590.63;;;15.81;58.28
54236;BME280;40151;43.606;1.472;2022-11-20T01:39:20;99594.84;;;15.86;58.46
54236;BME280;40151;43.606;1.472;2022-11-20T01:41:47;99591.44;;;15.83;58.32
54236;BME280;40151;43.606;1.472;2022-11-20T01:44:54;99599.31;;;15.83;58.45
54236;BME280;40151;43.606;1.472;2022-11-20T01:47:27;99603.66;;;15.84;58.51
54236;BME280;40151;43.606;1.472;2022-11-20T01:55:35;99608.13;;;15.82;58.48
54236;BME280;40151;43.606;1.472;2022-11-20T01:58:02;99602.97;;;15.79;58.15
54236;BME280;40151;43.606;1.472;2022-11-20T02:00:29;99607.41;;;15.79;58.37
54236;BME280;40151;43.606;1.472;2022-11-20T02:02:57;99596.88;;;15.79;58.33
54236;BME280;40151;43.606;1.472;2022-11-20T02:05:36;99606.53;;;15.78;58.44
54236;BME280;40151;43.606;1.472;2022-11-20T02:08:04;99601.25;;;15.78;58.31
54236;BME280;40151;43.606;1.472;2022-11-20T02:10:30;99602.97;;;15.79;58.34
54236;BME280;40151;43.606;1.472;2022-11-20T02:12:57;99604.81;;;15.77;58.03
54236;BME280;40151;43.606;1.472;2022-11-20T02:15:42;99610.03;;;15.79;58.01
54236;BME280;40151;43.606;1.472;2022-11-20T02:18:09;99612.75;;;15.76;58.20
54236;BME280;40151;43.606;1.472;2022-11-20T02:20:35;99618.00;;;15.76;58.24
54236;BME280;40151;43.606;1.472;2022-11-20T02:23:14;99614.53;;;15.75;58.42
54236;BME280;40151;43.606;1.472;2022-11-20T02:25:43;99611.91;;;15.75;58.27
54236;BME280;40151;43.606;1.472;2022-11-20T02:28:09;99606.75;;;15.72;58.43
54236;BME280;40151;43.606;1.472;2022-11-20T02:30:35;99613.78;;;15.71;58.54
54236;BME280;40151;43.606;1.472;2022-11-20T02:33:00;99612.00;;;15.72;58.11
54236;BME280;40151;43.606;1.472;2022-11-20T02:37:54;99610.31;;;15.71;58.42
54236;BME280;40151;43.606;1.472;2022-11-20T02:40:21;99610.16;;;15.74;58.27
54236;BME280;40151;43.606;1.472;2022-11-20T02:42:47;99605.03;;;15.71;58.18
54236;BME280;40151;43.606;1.472;2022-11-20T02:45:12;99610.31;;;15.71;58.09
54236;BME280;40151;43.606;1.472;2022-11-20T02:47:38;99602.47;;;15.69;58.18
54236;BME280;40151;43.606;1.472;2022-11-20T02:50:04;99603.19;;;15.73;58.23
54236;BME280;40151;43.606;1.472;2022-11-20T02:52:30;99602.41;;;15.71;58.02
54236;BME280;40151;43.606;1.472;2022-11-20T02:54:55;99606.88;;;15.69;58.18
54236;BME280;40151;43.606;1.472;2022-11-20T02:57:21;99615.66;;;15.68;58.10
54236;BME280;40151;43.606;1.472;2022-11-20T02:59:46;99618.25;;;15.69;58.20
54236;BME280;40151;43.606;1.472;2022-11-20T03:02:12;99621.06;;;15.65;58.16
54236;BME280;40151;43.606;1.472;2022-11-20T03:04:37;99616.56;;;15.67;58.00
54236;BME280;40151;43.606;1.472;2022-11-20T03:07:03;99629.84;;;15.64;58.08
54236;BME280;40151;43.606;1.472;2022-11-20T03:09:29;99621.06;;;15.65;58.19
54236;BME280;40151;43.606;1.472;2022-11-20T03:11:54;99621.84;;;15.67;57.99
54236;BME280;40151;43.606;1.472;2022-11-20T03:14:19;99619.44;;;15.61;58.13
54236;BME280;40151;43.606;1.472;2022-11-20T03:16:45;99614.06;;;15.64;58.16
54236;BME280;40151;43.606;1.472;2022-11-20T03:19:11;99613.16;;;15.65;58.21
54236;BME280;40151;43.606;1.472;2022-11-20T03:21:37;99612.34;;;15.63;57.92
54236;BME280;40151;43.606;1.472;2022-11-20T03:24:03;99614.13;;;15.62;57.94
54236;BME280;40151;43.606;1.472;2022-11-20T03:26:28;99610.75;;;15.59;57.93
54236;BME280;40151;43.606;1.472;2022-11-20T03:28:56;99610.63;;;15.62;58.04
54236;BME280;40151;43.606;1.472;2022-11-20T03:31:27;99608.91;;;15.61;58.12
54236;BME280;40151;43.606;1.472;2022-11-20T03:33:53;99602.84;;;15.59;58.06
54236;BME280;40151;43.606;1.472;2022-11-20T03:36:20;99604.56;;;15.60;58.09
54236;BME280;40151;43.606;1.472;2022-11-20T03:38:46;99606.41;;;15.57;58.14
54236;BME280;40151;43.606;1.472;2022-11-20T03:41:17;99593.25;;;15.57;58.17
54236;BME280;40151;43.606;1.472;2022-11-20T03:43:54;99592.44;;;15.55;57.78
54236;BME280;40151;43.606;1.472;2022-11-20T03:46:20;99596.03;;;15.53;58.21
54236;BME280;40151;43.606;1.472;2022-11-20T03:48:46;99600.31;;;15.55;58.02
54236;BME280;40151;43.606;1.472;2022-11-20T03:51:17;99589.94;;;15.52;57.94
54236;BME280;40151;43.606;1.472;2022-11-20T03:53:44;99596.91;;;15.53;58.14
54236;BME280;40151;43.606;1.472;2022-11-20T03:56:12;99595.28;;;15.49;58.03
54236;BME280;40151;43.606;1.472;2022-11-20T03:58:39;99592.56;;;15.52;57.82
54236;BME280;40151;43.606;1.472;2022-11-20T04:01:22;99587.34;;;15.51;58.23
54236;BME280;40151;43.606;1.472;2022-11-20T04:03:49;99584.66;;;15.52;58.10
54236;BME280;40151;43.606;1.472;2022-11-20T04:06:36;99588.25;;;15.50;57.98
54236;BME280;40151;43.606;1.472;2022-11-20T04:09:02;99593.56;;;15.48;58.07
54236;BME280;40151;43.606;1.472;2022-11-20T04:11:33;99595.28;;;15.49;57.90
54236;BME280;40151;43.606;1.472;2022-11-20T04:14:03;99590.03;;;15.49;58.20
54236;BME280;40151;43.606;1.472;2022-11-20T04:16:31;99588.31;;;15.48;58.09
54236;BME280;40151;43.606;1.472;2022-11-20T04:18:59;99588.41;;;15.45;58.00
54236;BME280;40151;43.606;1.472;2022-11-20T04:21:25;99584.91;;;15.46;58.05
54236;BME280;40151;43.606;1.472;2022-11-20T04:23:52;99591.88;;;15.47;58.22
54236;BME280;40151;43.606;1.472;2022-11-20T04:26:21;99583.22;;;15.43;58.05
54236;BME280;40151;43.606;1.472;2022-11-20T04:28:47;99584.91;;;15.46;57.99
54236;BME280;40151;43.606;1.472;2022-11-20T04:31:27;99590.25;;;15.43;58.05
54236;BME280;40151;43.606;1.472;2022-11-20T04:33:52;99587.66;;;15.41;58.17
54236;BME280;40151;43.606;1.472;2022-11-20T04:36:20;99578.09;;;15.39;57.83
54236;BME280;40151;43.606;1.472;2022-11-20T04:38:46;99572.84;;;15.39;57.97
54236;BME280;40151;43.606;1.472;2022-11-20T04:41:17;99575.47;;;15.39;57.96
54236;BME280;40151;43.606;1.472;2022-11-20T04:43:46;99573.78;;;15.38;57.73
54236;BME280;40151;43.606;1.472;2022-11-20T04:46:13;99558.00;;;15.38;57.93
54236;BME280;40151;43.606;1.472;2022-11-20T04:48:39;99565.88;;;15.38;57.92
54236;BME280;40151;43.606;1.472;2022-11-20T04:51:04;99558.88;;;15.38;57.83
54236;BME280;40151;43.606;1.472;2022-11-20T04:53:30;99565.13;;;15.34;58.08
54236;BME280;40151;43.606;1.472;2022-11-20T04:56:00;99571.34;;;15.32;57.88
54236;BME280;40151;43.606;1.472;2022-11-20T04:58:26;99574.88;;;15.32;58.17
54236;BME280;40151;43.606;1.472;2022-11-20T05:00:51;99571.34;;;15.32;58.22
54236;BME280;40151;43.606;1.472;2022-11-20T05:03:16;99575.59;;;15.36;57.71
54236;BME280;40151;43.606;1.472;2022-11-20T05:05:42;99574.91;;;15.30;57.83
54236;BME280;40151;43.606;1.472;2022-11-20T05:08:07;99567.81;;;15.33;58.11
54236;BME280;40151;43.606;1.472;2022-11-20T05:10:33;99562.69;;;15.29;57.87
54236;BME280;40151;43.606;1.472;2022-11-20T05:12:58;99568.72;;;15.32;57.98
54236;BME280;40151;43.606;1.472;2022-11-20T05:15:23;99574.91;;;15.30;57.97
54236;BME280;40151;43.606;1.472;2022-11-20T05:17:50;99569.66;;;15.30;58.03
54236;BME280;40151;43.606;1.472;2022-11-20T05:20:16;99573.19;;;15.29;58.04
54236;BME280;40151;43.606;1.472;2022-11-20T05:22:42;99570.56;;;15.29;58.16
54236;BME280;40151;43.606;1.472;2022-11-20T05:25:08;99576.75;;;15.28;57.80
54236;BME280;40151;43.606;1.472;2022-11-20T05:27:33;99567.94;;;15.29;57.80
54236;BME280;40151;43.606;1.472;2022-11-20T05:29:59;99568.03;;;15.26;57.79
54236;BME280;40151;43.606;1.472;2022-11-20T05:32:24;99562.78;;;15.26;58.02
54236;BME280;40151;43.606;1.472;2022-11-20T05:34:53;99566.31;;;15.25;57.64
54236;BME280;40151;43.606;1.472;2022-11-20T05:37:19;99565.41;;;15.26;57.75
54236;BME280;40151;43.606;1.472;2022-11-20T05:39:44;99563.69;;;15.25;57.61
54236;BME280;40151;43.606;1.472;2022-11-20T05:42:09;99568.16;;;15.23;57.85
54236;BME280;40151;43.606;1.472;2022-11-20T05:44:54;99566.44;;;15.22;57.75
54236;BME280;40151;43.606;1.472;2022-11-20T05:47:19;99568.25;;;15.20;57.53
54236;BME280;40151;43.606;1.472;2022-11-20T05:49:44;99563.88;;;15.21;57.49
54236;BME280;40151;43.606;1.472;2022-11-20T05:52:10;99564.88;;;15.16;57.97
54236;BME280;40151;43.606;1.472;2022-11-20T05:54:35;99563.22;;;15.14;57.98
54236;BME280;40151;43.606;1.472;2022-11-20T05:57:01;99558.91;;;15.11;57.92
54236;BME280;40151;43.606;1.472;2022-11-20T05:59:26;99562.28;;;15.15;57.50
54236;BME280;40151;43.606;1.472;2022-11-20T06:01:51;99572.81;;;15.15;57.69
54236;BME280;40151;43.606;1.472;2022-11-20T06:04:19;99572.94;;;15.12;57.85
54236;BME280;40151;43.606;1.472;2022-11-20T06:06:45;99572.00;;;15.13;57.70
54236;BME280;40151;43.606;1.472;2022-11-20T06:09:10;99572.00;;;15.13;57.67
54236;BME280;40151;43.606;1.472;2022-11-20T06:11:35;99575.56;;;15.12;57.85
54236;BME280;40151;43.606;1.472;2022-11-20T06:14:01;99576.53;;;15.09;57.72
54236;BME280;40151;43.606;1.472;2022-11-20T06:16:26;99574.69;;;15.11;57.65
54236;BME280;40151;43.606;1.472;2022-11-20T06:18:52;99580.84;;;15.10;57.93
54236;BME280;40151;43.606;1.472;2022-11-20T06:21:20;99579.09;;;15.11;57.79
54236;BME280;40151;43.606;1.472;2022-11-20T06:23:46;99575.78;;;15.06;57.89
54236;BME280;40151;43.606;1.472;2022-11-20T06:26:15;99577.34;;;15.10;57.79
54236;BME280;40151;43.606;1.472;2022-11-20T06:28:41;99575.66;;;15.09;57.75
54236;BME280;40151;43.606;1.472;2022-11-20T06:31:07;99569.59;;;15.07;57.79
54236;BME280;40151;43.606;1.472;2022-11-20T06:33:33;99577.47;;;15.07;57.69
54236;BME280;40151;43.606;1.472;2022-11-20T06:36:00;99570.50;;;15.06;57.63
54236;BME280;40151;43.606;1.472;2022-11-20T06:38:26;99568.91;;;15.01;57.77
54236;BME280;40151;43.606;1.472;2022-11-20T06:40:52;99576.72;;;15.03;57.72
54236;BME280;40151;43.606;1.472;2022-11-20T06:43:17;99577.56;;;15.03;58.06
54236;BME280;40151;43.606;1.472;2022-11-20T06:45:43;99568.91;;;15.01;57.72
54236;BME280;40151;43.606;1.472;2022-11-20T06:48:08;99570.72;;;14.99;57.71
54236;BME280;40151;43.606;1.472;2022-11-20T06:50:36;99572.44;;;15.00;57.88
54236;BME280;40151;43.606;1.472;2022-11-20T06:53:02;99563.75;;;14.98;57.80
54236;BME280;40151;43.606;1.472;2022-11-20T06:55:28;99570.72;;;14.99;57.83
54236;BME280;40151;43.606;1.472;2022-11-20T06:57:53;99570.97;;;14.92;57.94
54236;BME280;40151;43.606;1.472;2022-11-20T07:00:19;99568.22;;;14.95;57.50
54236;BME280;40151;43.606;1.472;2022-11-20T07:02:44;99564.84;;;14.91;57.95
54236;BME280;40151;43.606;1.472;2022-11-20T07:05:10;99571.78;;;14.94;57.87
54236;BME280;40151;43.606;1.472;2022-11-20T07:07:35;99574.47;;;14.92;58.00
54236;BME280;40151;43.606;1.472;2022-11-20T07:10:00;99571.03;;;14.90;57.80
54236;BME280;40151;43.606;1.472;2022-11-20T07:12:26;99569.31;;;14.89;57.88
54236;BME280;40151;43.606;1.472;2022-11-20T07:14:51;99574.56;;;14.89;57.87
54236;BME280;40151;43.606;1.472;2022-11-20T07:17:17;99580.81;;;14.85;57.80
54236;BME280;40151;43.606;1.472;2022-11-20T07:19:42;99585.16;;;14.86;57.75
54236;BME280;40151;43.606;1.472;2022-11-20T07:22:08;99586.91;;;14.87;57.90
54236;BME280;40151;43.606;1.472;2022-11-20T07:24:34;99587.78;;;14.86;57.80
54236;BME280;40151;43.606;1.472;2022-11-20T07:27:00;99590.63;;;14.80;57.98
54236;BME280;40151;43.606;1.472;2022-11-20T07:29:25;99593.25;;;14.80;57.70
54236;BME280;40151;43.606;1.472;2022-11-20T07:31:51;99587.94;;;14.81;57.76
54236;BME280;40151;43.606;1.472;2022-11-20T07:34:16;99591.53;;;14.79;57.75
54236;BME280;40151;43.606;1.472;2022-11-20T07:36:41;99600.25;;;14.81;58.16
54236;BME280;40151;43.606;1.472;2022-11-20T07:39:07;99599.53;;;14.75;57.91
54236;BME280;40151;43.606;1.472;2022-11-20T07:41:32;99603.84;;;14.78;57.84
54236;BME280;40151;43.606;1.472;2022-11-20T07:43:58;99595.94;;;14.78;58.07
54236;BME280;40151;43.606;1.472;2022-11-20T07:46:23;99592.56;;;14.74;57.66
54236;BME280;40151;43.606;1.472;2022-11-20T07:48:49;99591.66;;;14.75;57.91
54236;BME280;40151;43.606;1.472;2022-11-20T07:51:14;99601.25;;;14.76;58.12
54236;BME280;40151;43.606;1.472;2022-11-20T07:53:39;99603.88;;;14.76;57.90
54236;BME280;40151;43.606;1.472;2022-11-20T07:56:05;99604.78;;;14.75;57.73
54236;BME280;40151;43.606;1.472;2022-11-20T07:58:31;99603.91;;;14.75;57.87
54236;BME280;40151;43.606;1.472;2022-11-20T08:01:02;99606.50;;;14.76;57.93
54236;BME280;40151;43.606;1.472;2022-11-20T08:03:28;99599.47;;;14.77;58.11
54236;BME280;40151;43.606;1.472;2022-11-20T08:05:53;99604.66;;;14.79;57.91
54236;BME280;40151;43.606;1.472;2022-11-20T08:08:19;99609.09;;;14.78;57.84
54236;BME280;40151;43.606;1.472;2022-11-20T08:10:45;99611.78;;;14.75;58.38
54236;BME280;40151;43.606;1.472;2022-11-20T08:13:10;99616.06;;;14.79;58.18
54236;BME280;40151;43.606;1.472;2022-11-20T08:15:54;99618.63;;;14.81;57.83
54236;BME280;40151;43.606;1.472;2022-11-20T08:18:19;99609.94;;;14.79;58.01
54236;BME280;40151;43.606;1.472;2022-11-20T08:20:45;99620.44;;;14.79;58.03
54236;BME280;40151;43.606;1.472;2022-11-20T08:23:10;99618.72;;;14.77;58.01
54236;BME280;40151;43.606;1.472;2022-11-20T08:25:37;99616.88;;;14.80;58.25
54236;BME280;40151;43.606;1.472;2022-11-20T08:28:08;99625.81;;;14.75;58.01
54236;BME280;40151;43.606;1.472;2022-11-20T08:30:35;99630.16;;;14.76;58.08
54236;BME280;40151;43.606;1.472;2022-11-20T08:33:06;99634.53;;;14.76;57.94
54236;BME280;40151;43.606;1.472;2022-11-20T08:35:34;99634.53;;;14.76;58.15
54236;BME280;40151;43.606;1.472;2022-11-20T08:38:01;99643.25;;;14.78;57.98
54236;BME280;40151;43.606;1.472;2022-11-20T08:40:26;99635.41;;;14.76;58.19
54236;BME280;40151;43.606;1.472;2022-11-20T08:42:51;99644.13;;;14.77;58.16
54236;BME280;40151;43.606;1.472;2022-11-20T08:45:18;99649.38;;;14.77;58.39
54236;BME280;40151;43.606;1.472;2022-11-20T08:47:44;99632.78;;;14.76;58.60
54236;BME280;40151;43.606;1.472;2022-11-20T08:50:11;99634.59;;;14.74;59.10
54236;BME280;40151;43.606;1.472;2022-11-20T08:52:37;99646.72;;;14.79;58.62
54236;BME280;40151;43.606;1.472;2022-11-20T08:55:04;99659.88;;;14.77;58.81
54236;BME280;40151;43.606;1.472;2022-11-20T08:57:34;99661.56;;;14.80;58.46
54236;BME280;40151;43.606;1.472;2022-11-20T08:59:59;99665.00;;;14.82;58.71
54236;BME280;40151;43.606;1.472;2022-11-20T09:02:25;99664.97;;;14.83;58.81
54236;BME280;40151;43.606;1.472;2022-11-20T09:04:51;99672.91;;;14.82;58.64
54236;BME280;40151;43.606;1.472;2022-11-20T09:07:16;99674.59;;;14.83;58.62
54236;BME280;40151;43.606;1.472;2022-11-20T09:09:42;99678.91;;;14.85;58.57
54236;BME280;40151;43.606;1.472;2022-11-20T09:12:07;99676.31;;;14.84;58.61
54236;BME280;40151;43.606;1.472;2022-11-20T09:14:33;99679.75;;;14.86;58.80
54236;BME280;40151;43.606;1.472;2022-11-20T09:16:59;99690.25;;;14.86;58.71
54236;BME280;40151;43.606;1.472;2022-11-20T09:19:24;99686.75;;;14.87;58.95
54236;BME280;40151;43.606;1.472;2022-11-20T09:21:50;99691.13;;;14.86;58.57
54236;BME280;40151;43.606;1.472;2022-11-20T09:24:16;99694.56;;;14.88;58.75
54236;BME280;40151;43.606;1.472;2022-11-20T09:26:41;99686.69;;;14.88;58.64
54236;BME280;40151;43.606;1.472;2022-11-20T09:29:06;99691.88;;;14.90;58.68
54236;BME280;40151;43.606;1.472;2022-11-20T09:31:32;99693.72;;;14.88;58.69
54236;BME280;40151;43.606;1.472;2022-11-20T09:33:57;99698.06;;;14.89;58.93
54236;BME280;40151;43.606;1.472;2022-11-20T09:36:23;99690.97;;;14.91;58.67
54236;BME280;40151;43.606;1.472;2022-11-20T09:38:48;99682.25;;;14.90;58.81
54236;BME280;40151;43.606;1.472;2022-11-20T09:45:02;99673.50;;;14.90;58.99
54236;BME280;40151;43.606;1.472;2022-11-20T09:50:37;99662.06;;;14.91;58.91
54236;BME280;40151;43.606;1.472;2022-11-20T09:55:45;99647.94;;;14.95;58.71
54236;BME280;40151;43.606;1.472;2022-11-20T09:58:24;99636.66;;;14.92;58.99
54236;BME280;40151;43.606;1.472;2022-11-20T10:00:52;99633.91;;;14.95;59.02
54236;BME280;40151;43.606;1.472;2022-11-20T10:03:33;99627.88;;;14.93;59.06
54236;BME280;40151;43.606;1.472;2022-11-20T10:06:02;99620.91;;;14.92;59.14
54236;BME280;40151;43.606;1.472;2022-11-20T10:08:42;99637.41;;;14.95;59.13
54236;BME280;40151;43.606;1.472;2022-11-20T10:11:33;99636.56;;;14.95;59.11
54236;BME280;40151;43.606;1.472;2022-11-20T10:17:08;99631.25;;;14.96;59.08
54236;BME280;40151;43.606;1.472;2022-11-20T10:20:02;99643.44;;;14.99;58.96
54236;BME280;40151;43.606;1.472;2022-11-20T10:30:59;99651.28;;;15.00;59.10
54236;BME280;40151;43.606;1.472;2022-11-20T10:33:27;99659.97;;;15.02;59.11
54236;BME280;40151;43.606;1.472;2022-11-20T10:36:40;99653.78;;;15.03;59.01
54236;BME280;40151;43.606;1.472;2022-11-20T10:38:49;99650.31;;;15.03;59.25
54236;BME280;40151;43.606;1.472;2022-11-20T10:41:24;99643.22;;;15.05;59.22
54236;BME280;40151;43.606;1.472;2022-11-20T10:44:03;99638.84;;;15.06;59.24
54236;BME280;40151;43.606;1.472;2022-11-20T10:46:36;99621.25;;;15.08;59.20
54236;BME280;40151;43.606;1.472;2022-11-20T10:49:10;99620.44;;;15.06;59.17
54236;BME280;40151;43.606;1.472;2022-11-20T10:51:56;99621.16;;;15.11;59.02
54236;BME280;40151;43.606;1.472;2022-11-20T10:54:36;99618.66;;;15.06;59.36
54236;BME280;40151;43.606;1.472;2022-11-20T10:57:14;99622.97;;;15.09;59.28
54236;BME280;40151;43.606;1.472;2022-11-20T11:00:05;99612.34;;;15.12;59.34
54236;BME280;40151;43.606;1.472;2022-11-20T11:02:50;99601.94;;;15.09;59.47
54236;BME280;40151;43.606;1.472;2022-11-20T11:05:39;99598.38;;;15.10;59.55
54236;BME280;40151;43.606;1.472;2022-11-20T11:08:12;99587.78;;;15.13;59.25
54236;BME280;40151;43.606;1.472;2022-11-20T11:11:33;99592.06;;;15.15;59.48
54236;BME280;40151;43.606;1.472;2022-11-20T11:13:33;99594.75;;;15.14;59.29
54236;BME280;40151;43.606;1.472;2022-11-20T11:15:58;99591.19;;;15.15;59.45
54236;BME280;40151;43.606;1.472;2022-11-20T11:18:26;99592.03;;;15.17;59.37
54236;BME280;40151;43.606;1.472;2022-11-20T11:20:54;99587.56;;;15.19;59.38
54236;BME280;40151;43.606;1.472;2022-11-20T11:23:32;99584.94;;;15.19;59.34
54236;BME280;40151;43.606;1.472;2022-11-20T11:26:00;99587.47;;;15.22;59.51
54236;BME280;40151;43.606;1.472;2022-11-20T11:28:26;99587.47;;;15.22;59.66
54236;BME280;40151;43.606;1.472;2022-11-20T11:30:53;99585.63;;;15.24;59.51
54236;BME280;40151;43.606;1.472;2022-11-20T11:33:28;99575.09;;;15.26;59.56
54236;BME280;40151;43.606;1.472;2022-11-20T11:35:56;99566.31;;;15.25;59.35
54236;BME280;40151;43.606;1.472;2022-11-20T11:38:43;99562.69;;;15.29;59.36
54236;BME280;40151;43.606;1.472;2022-11-20T11:41:20;99555.72;;;15.28;59.44
54236;BME280;40151;43.606;1.472;2022-11-20T11:43:55;99559.94;;;15.33;59.42
54236;BME280;40151;43.606;1.472;2022-11-20T11:46:44;99546.84;;;15.31;59.76
54236;BME280;40151;43.606;1.472;2022-11-20T11:49:18;99543.25;;;15.34;59.77
54236;BME280;40151;43.606;1.472;2022-11-20T11:54:38;99532.63;;;15.37;59.75
54236;BME280;40151;43.606;1.472;2022-11-20T12:13:01;99523.47;;;15.47;59.63
54236;BME280;40151;43.606;1.472;2022-11-20T12:15:32;99514.56;;;15.51;59.61
54236;BME280;40151;43.606;1.472;2022-11-20T12:17:58;99512.75;;;15.53;59.37
54236;BME280;40151;43.606;1.472;2022-11-20T12:20:29;99512.59;;;15.56;59.51
54236;BME280;40151;43.606;1.472;2022-11-20T12:23:09;99512.59;;;15.56;59.58
54236;BME280;40151;43.606;1.472;2022-11-20T12:25:41;99499.53;;;15.55;60.03
54236;BME280;40151;43.606;1.472;2022-11-20T12:30:45;99501.97;;;15.60;59.58
54236;BME280;40151;43.606;1.472;2022-11-20T12:50:16;99487.56;;;15.70;59.77
54236;BME280;40151;43.606;1.472;2022-11-20T12:52:51;99485.88;;;15.69;59.78
54236;BME280;40151;43.606;1.472;2022-11-20T12:55:46;99484.84;;;15.71;59.96
54236;BME280;40151;43.606;1.472;2022-11-20T12:58:58;99491.91;;;15.71;59.95
54236;BME280;40151;43.606;1.472;2022-11-20T13:07:05;99490.06;;;15.73;60.19
54236;BME280;40151;43.606;1.472;2022-11-20T13:09:32;99493.53;;;15.75;59.94
54236;BME280;40151;43.606;1.472;2022-11-20T13:12:24;99487.34;;;15.76;60.08
54236;BME280;40151;43.606;1.472;2022-11-20T13:20:13;99483.78;;;15.77;60.15
54236;BME280;40151;43.606;1.472;2022-11-20T13:22:46;99479.31;;;15.79;59.95
54236;BME280;40151;43.606;1.472;2022-11-20T13:25:35;99491.63;;;15.79;60.07
54236;BME280;40151;43.606;1.472;2022-11-20T13:30:47;99469.59;;;15.81;60.23
54236;BME280;40151;43.606;1.472;2022-11-20T13:33:27;99466.16;;;15.79;60.32
54236;BME280;40151;43.606;1.472;2022-11-20T13:35:58;99469.59;;;15.81;60.29
54236;BME280;40151;43.606;1.472;2022-11-20T13:38:23;99464.34;;;15.81;60.41
54236;BME280;40151;43.606;1.472;2022-11-20T13:40:54;99458.94;;;15.84;60.35
54236;BME280;40151;43.606;1.472;2022-11-20T13:46:01;99462.38;;;15.87;60.19
54236;BME280;40151;43.606;1.472;2022-11-20T13:48:31;99453.56;;;15.88;60.41
54236;BME280;40151;43.606;1.472;2022-11-20T13:59:25;99446.47;;;15.90;60.49
54236;BME280;40151;43.606;1.472;2022-11-20T14:01:53;99444.63;;;15.92;60.40
54236;BME280;40151;43.606;1.472;2022-11-20T14:04:26;99441.13;;;15.93;60.36
54236;BME280;40151;43.606;1.472;2022-11-20T14:06:52;99431.44;;;15.93;60.57
54236;BME280;40151;43.606;1.472;2022-11-20T14:09:31;99439.28;;;15.95;60.46
54236;BME280;40151;43.606;1.472;2022-11-20T14:11:57;99435.72;;;15.96;60.42
54236;BME280;40151;43.606;1.472;2022-11-20T14:14:28;99436.59;;;15.96;60.60
54236;BME280;40151;43.606;1.472;2022-11-20T14:17:08;99435.59;;;15.99;60.42
54236;BME280;40151;43.606;1.472;2022-11-20T14:19:34;99441.75;;;15.98;60.76
54236;BME280;40151;43.606;1.472;2022-11-20T14:22:24;99439.03;;;16.01;60.52
54236;BME280;40151;43.606;1.472;2022-11-20T14:27:41;99440.63;;;16.05;60.36
54236;BME280;40151;43.606;1.472;2022-11-20T14:30:42;99449.41;;;16.04;61.04
54236;BME280;40151;43.606;1.472;2022-11-20T14:33:12;99431.00;;;16.04;60.90
54236;BME280;40151;43.606;1.472;2022-11-20T14:35:48;99426.53;;;16.06;60.46
54236;BME280;40151;43.606;1.472;2022-11-20T14:38:16;99422.09;;;16.07;61.03
54236;BME280;40151;43.606;1.472;2022-11-20T14:40:44;99421.13;;;16.09;60.87
54236;BME280;40151;43.606;1.472;2022-11-20T14:43:22;99421.13;;;16.09;60.85
54236;BME280;40151;43.606;1.472;2022-11-20T14:45:59;99420.25;;;16.10;60.64